sensor_id;sensor_type;location;lat;lon;timestamp;pressure;altitude;pressure_sealevel;temperature;humidity
56604;BME280;42486;47.478;19.036;2022-10-04T00:02:34;100606.72;;;10.72;87.23
56604;BME280;42486;47.478;19.036;2022-10-04T00:05:39;100606.94;;;10.69;87.37
56604;BME280;42486;47.478;19.036;2022-10-04T00:08:57;100608.81;;;10.67;87.67
56604;BME280;42486;47.478;19.036;2022-10-04T00:12:01;100608.91;;;10.66;88.50
56604;BME280;42486;47.478;19.036;2022-10-04T00:15:39;100606.41;;;10.64;90.93
56604;BME280;42486;47.478;19.036;2022-10-04T00:18:39;100614.56;;;10.60;89.15
56604;BME280;42486;47.478;19.036;2022-10-04T00:25:02;100610.59;;;10.54;89.90
56604;BME280;42486;47.478;19.036;2022-10-04T00:31:27;100603.19;;;10.48;90.96
56604;BME280;42486;47.478;19.036;2022-10-04T00:37:51;100605.69;;;10.49;92.84
56604;BME280;42486;47.478;19.036;2022-10-04T00:41:02;100596.72;;;10.41;92.17
56604;BME280;42486;47.478;19.036;2022-10-04T00:44:09;100605.47;;;10.40;93.11
56604;BME280;42486;47.478;19.036;2022-10-04T00:47:21;100600.91;;;10.30;93.24
56604;BME280;42486;47.478;19.036;2022-10-04T00:50:28;100604.62;;;10.26;94.27
56604;BME280;42486;47.478;19.036;2022-10-04T00:53:57;100599.72;;;10.22;94.10
56604;BME280;42486;47.478;19.036;2022-10-04T00:57:00;100597.13;;;10.22;95.88
56604;BME280;42486;47.478;19.036;2022-10-04T01:00:07;100592.13;;;10.19;95.13
56604;BME280;42486;47.478;19.036;2022-10-04T01:03:17;100579.97;;;10.18;96.03
56604;BME280;42486;47.478;19.036;2022-10-04T01:06:24;100588.97;;;10.13;96.78
56604;BME280;42486;47.478;19.036;2022-10-04T01:09:31;100588.03;;;10.14;96.79
56604;BME280;42486;47.478;19.036;2022-10-04T01:18:45;100571.53;;;10.27;96.16
56604;BME280;42486;47.478;19.036;2022-10-04T01:21:57;100564.56;;;10.27;96.51
56604;BME280;42486;47.478;19.036;2022-10-04T01:25:00;100571.53;;;10.27;96.26
56604;BME280;42486;47.478;19.036;2022-10-04T01:28:03;100563.28;;;10.33;96.09
56604;BME280;42486;47.478;19.036;2022-10-04T01:31:06;100562.78;;;10.28;96.20
56604;BME280;42486;47.478;19.036;2022-10-04T01:34:10;100560.06;;;10.29;96.36
56604;BME280;42486;47.478;19.036;2022-10-04T01:37:14;100558.69;;;10.36;95.69
56604;BME280;42486;47.478;19.036;2022-10-04T01:40:18;100568.09;;;10.39;95.78
56604;BME280;42486;47.478;19.036;2022-10-04T01:43:22;100561.50;;;10.46;95.67
56604;BME280;42486;47.478;19.036;2022-10-04T01:46:32;100555.84;;;10.52;95.84
56604;BME280;42486;47.478;19.036;2022-10-04T01:49:38;100551.12;;;10.57;95.55
56604;BME280;42486;47.478;19.036;2022-10-04T01:52:44;100548.75;;;10.54;94.89
56604;BME280;42486;47.478;19.036;2022-10-04T01:55:52;100549.69;;;10.53;95.29
56604;BME280;42486;47.478;19.036;2022-10-04T01:58:57;100553.75;;;10.57;96.08
56604;BME280;42486;47.478;19.036;2022-10-04T02:02:06;100552.69;;;10.60;94.92
56604;BME280;42486;47.478;19.036;2022-10-04T02:05:12;100552.19;;;10.55;94.84
56604;BME280;42486;47.478;19.036;2022-10-04T02:08:21;100557.69;;;10.63;95.35
56604;BME280;42486;47.478;19.036;2022-10-04T02:11:26;100570.13;;;10.72;93.68
56604;BME280;42486;47.478;19.036;2022-10-04T02:14:34;100567.38;;;10.74;95.55
56604;BME280;42486;47.478;19.036;2022-10-04T02:17:39;100565.81;;;10.71;94.04
56604;BME280;42486;47.478;19.036;2022-10-04T02:20:44;100572.22;;;10.67;95.42
56604;BME280;42486;47.478;19.036;2022-10-04T02:23:48;100562.81;;;10.65;95.57
56604;BME280;42486;47.478;19.036;2022-10-04T02:26:53;100574.31;;;10.62;97.17
56604;BME280;42486;47.478;19.036;2022-10-04T02:30:14;100572.16;;;10.56;96.85
56604;BME280;42486;47.478;19.036;2022-10-04T02:33:16;100569.72;;;10.53;96.89
56604;BME280;42486;47.478;19.036;2022-10-04T02:36:22;100575.41;;;10.47;96.50
56604;BME280;42486;47.478;19.036;2022-10-04T02:39:27;100578.84;;;10.47;96.63
56604;BME280;42486;47.478;19.036;2022-10-04T02:42:43;100578.44;;;10.53;98.60
56604;BME280;42486;47.478;19.036;2022-10-04T02:45:53;100576.44;;;10.57;96.81
56604;BME280;42486;47.478;19.036;2022-10-04T02:48:59;100565.00;;;10.71;95.56
56604;BME280;42486;47.478;19.036;2022-10-04T02:52:08;100568.13;;;10.76;95.82
56604;BME280;42486;47.478;19.036;2022-10-04T02:55:16;100572.19;;;10.80;94.85
56604;BME280;42486;47.478;19.036;2022-10-04T02:58:23;100566.75;;;10.83;93.87
56604;BME280;42486;47.478;19.036;2022-10-04T03:01:27;100565.06;;;10.82;94.12
56604;BME280;42486;47.478;19.036;2022-10-04T03:04:39;100570.41;;;10.80;95.73
56604;BME280;42486;47.478;19.036;2022-10-04T03:07:42;100561.63;;;10.82;96.29
56604;BME280;42486;47.478;19.036;2022-10-04T03:10:45;100567.50;;;10.72;95.59
56604;BME280;42486;47.478;19.036;2022-10-04T03:13:51;100569.78;;;10.77;94.53
56604;BME280;42486;47.478;19.036;2022-10-04T03:16:54;100568.72;;;10.79;95.02
56604;BME280;42486;47.478;19.036;2022-10-04T03:19:59;100569.59;;;10.80;94.56
56604;BME280;42486;47.478;19.036;2022-10-04T03:23:02;100566.97;;;10.80;94.49
56604;BME280;42486;47.478;19.036;2022-10-04T03:29:28;100556.53;;;10.80;96.42
56604;BME280;42486;47.478;19.036;2022-10-04T03:32:35;100571.34;;;10.79;94.68
56604;BME280;42486;47.478;19.036;2022-10-04T03:35:39;100570.09;;;10.85;94.23
56604;BME280;42486;47.478;19.036;2022-10-04T03:38:43;100572.59;;;10.87;94.26
56604;BME280;42486;47.478;19.036;2022-10-04T03:41:46;100570.09;;;10.85;94.29
56604;BME280;42486;47.478;19.036;2022-10-04T03:44:52;100573.63;;;10.84;94.21
56604;BME280;42486;47.478;19.036;2022-10-04T03:47:57;100584.09;;;10.84;94.52
56604;BME280;42486;47.478;19.036;2022-10-04T03:51:03;100563.19;;;10.84;94.62
56604;BME280;42486;47.478;19.036;2022-10-04T03:54:09;100571.84;;;10.85;94.85
56604;BME280;42486;47.478;19.036;2022-10-04T03:57:14;100571.75;;;10.86;95.19
56604;BME280;42486;47.478;19.036;2022-10-04T04:00:17;100563.09;;;10.86;95.39
56604;BME280;42486;47.478;19.036;2022-10-04T04:03:22;100556.81;;;10.88;95.10
56604;BME280;42486;47.478;19.036;2022-10-04T04:06:39;100560.47;;;10.86;95.05
56604;BME280;42486;47.478;19.036;2022-10-04T04:09:52;100557.22;;;10.82;95.13
56604;BME280;42486;47.478;19.036;2022-10-04T04:16:20;100569.16;;;10.86;95.50
56604;BME280;42486;47.478;19.036;2022-10-04T04:19:27;100559.50;;;10.87;95.14
56604;BME280;42486;47.478;19.036;2022-10-04T04:22:30;100567.25;;;10.88;92.67
56604;BME280;42486;47.478;19.036;2022-10-04T04:25:33;100557.09;;;10.96;92.14
56604;BME280;42486;47.478;19.036;2022-10-04T04:28:51;100570.75;;;11.00;91.98
56604;BME280;42486;47.478;19.036;2022-10-04T04:35:03;100580.50;;;10.98;92.02
56604;BME280;42486;47.478;19.036;2022-10-04T04:38:13;100571.94;;;10.96;92.63
56604;BME280;42486;47.478;19.036;2022-10-04T04:41:19;100589.47;;;11.07;94.22
56604;BME280;42486;47.478;19.036;2022-10-04T04:44:23;100587.69;;;11.07;95.19
56604;BME280;42486;47.478;19.036;2022-10-04T04:47:28;100591.97;;;11.08;94.55
56604;BME280;42486;47.478;19.036;2022-10-04T04:50:33;100580.00;;;11.17;94.29
56604;BME280;42486;47.478;19.036;2022-10-04T04:53:36;100575.16;;;11.23;94.11
56604;BME280;42486;47.478;19.036;2022-10-04T04:56:46;100580.16;;;11.27;94.22
56604;BME280;42486;47.478;19.036;2022-10-04T04:59:54;100588.91;;;11.38;92.84
56604;BME280;42486;47.478;19.036;2022-10-04T05:03:06;100599.37;;;11.38;92.66
56604;BME280;42486;47.478;19.036;2022-10-04T05:06:20;100610.31;;;11.43;92.57
56604;BME280;42486;47.478;19.036;2022-10-04T05:09:36;100614.50;;;11.46;92.93
56604;BME280;42486;47.478;19.036;2022-10-04T05:12:42;100619.31;;;11.52;93.23
56604;BME280;42486;47.478;19.036;2022-10-04T05:15:48;100617.50;;;11.53;93.47
56604;BME280;42486;47.478;19.036;2022-10-04T05:22:16;100617.19;;;11.57;93.13
56604;BME280;42486;47.478;19.036;2022-10-04T05:25:26;100633.03;;;11.67;92.45
56604;BME280;42486;47.478;19.036;2022-10-04T05:28:31;100638.44;;;11.53;93.40
56604;BME280;42486;47.478;19.036;2022-10-04T05:34:59;100645.25;;;11.55;92.64
56604;BME280;42486;47.478;19.036;2022-10-04T05:38:42;100646.53;;;11.50;92.68
56604;BME280;42486;47.478;19.036;2022-10-04T05:44:45;100653.38;;;11.39;95.04
56604;BME280;42486;47.478;19.036;2022-10-04T05:47:49;100651.19;;;11.33;97.03
56604;BME280;42486;47.478;19.036;2022-10-04T05:50:53;100655.94;;;11.28;96.79
56604;BME280;42486;47.478;19.036;2022-10-04T05:53:57;100648.31;;;11.25;97.28
56604;BME280;42486;47.478;19.036;2022-10-04T06:00:39;100674.00;;;11.31;97.63
56604;BME280;42486;47.478;19.036;2022-10-04T06:07:19;100662.22;;;11.50;95.88
56604;BME280;42486;47.478;19.036;2022-10-04T06:13:40;100675.41;;;11.72;94.70
56604;BME280;42486;47.478;19.036;2022-10-04T06:23:09;100686.88;;;11.82;93.70
56604;BME280;42486;47.478;19.036;2022-10-04T06:26:38;100686.56;;;11.87;94.39
56604;BME280;42486;47.478;19.036;2022-10-04T06:29:45;100694.09;;;11.92;94.71
56604;BME280;42486;47.478;19.036;2022-10-04T07:03:34;100689.25;;;12.67;92.12
56604;BME280;42486;47.478;19.036;2022-10-04T07:06:15;100698.09;;;12.77;91.88
56604;BME280;42486;47.478;19.036;2022-10-04T07:09:38;100696.62;;;12.73;91.47
56604;BME280;42486;47.478;19.036;2022-10-04T07:12:44;100704.75;;;12.82;90.05
56604;BME280;42486;47.478;19.036;2022-10-04T07:25:12;100712.16;;;13.10;88.52
56604;BME280;42486;47.478;19.036;2022-10-04T07:28:22;100713.09;;;13.20;87.35
56604;BME280;42486;47.478;19.036;2022-10-04T07:32:10;100717.88;;;13.38;86.22
56604;BME280;42486;47.478;19.036;2022-10-04T07:41:21;100734.81;;;13.34;85.13
56604;BME280;42486;47.478;19.036;2022-10-04T07:44:43;100725.50;;;13.41;84.30
56604;BME280;42486;47.478;19.036;2022-10-04T07:47:48;100726.44;;;13.40;83.91
56604;BME280;42486;47.478;19.036;2022-10-04T07:51:06;100723.78;;;13.62;82.51
56604;BME280;42486;47.478;19.036;2022-10-04T07:54:20;100722.88;;;13.84;81.41
56604;BME280;42486;47.478;19.036;2022-10-04T08:16:48;100739.13;;;14.94;74.43
56604;BME280;42486;47.478;19.036;2022-10-04T08:26:51;100762.63;;;14.23;73.71
56604;BME280;42486;47.478;19.036;2022-10-04T08:30:16;100765.91;;;14.37;74.09
56604;BME280;42486;47.478;19.036;2022-10-04T08:36:39;100773.59;;;14.28;74.65
56604;BME280;42486;47.478;19.036;2022-10-04T09:12:14;100778.50;;;14.75;70.23
56604;BME280;42486;47.478;19.036;2022-10-04T09:18:51;100756.13;;;15.11;67.17
56604;BME280;42486;47.478;19.036;2022-10-04T09:28:16;100764.06;;;15.31;65.33
56604;BME280;42486;47.478;19.036;2022-10-04T09:34:49;100767.34;;;15.54;67.00
56604;BME280;42486;47.478;19.036;2022-10-04T09:57:15;100793.84;;;15.22;64.63
56604;BME280;42486;47.478;19.036;2022-10-04T10:00:25;100801.19;;;15.28;65.66
56604;BME280;42486;47.478;19.036;2022-10-04T10:03:37;100810.84;;;15.17;66.83
56604;BME280;42486;47.478;19.036;2022-10-04T10:23:53;100813.22;;;14.90;67.60
56604;BME280;42486;47.478;19.036;2022-10-04T10:30:02;100817.66;;;15.20;67.27
56604;BME280;42486;47.478;19.036;2022-10-04T10:33:10;100823.91;;;15.19;66.16
56604;BME280;42486;47.478;19.036;2022-10-04T10:36:23;100825.50;;;15.10;66.67
56604;BME280;42486;47.478;19.036;2022-10-04T10:39:36;100826.91;;;15.14;67.45
56604;BME280;42486;47.478;19.036;2022-10-04T10:42:51;100823.56;;;15.12;67.11
56604;BME280;42486;47.478;19.036;2022-10-04T10:46:19;100817.53;;;15.22;65.06
56604;BME280;42486;47.478;19.036;2022-10-04T10:52:51;100818.25;;;15.33;64.69
56604;BME280;42486;47.478;19.036;2022-10-04T10:59:08;100815.75;;;15.32;65.20
56604;BME280;42486;47.478;19.036;2022-10-04T11:21:59;100810.72;;;16.58;59.95
56604;BME280;42486;47.478;19.036;2022-10-04T11:28:41;100816.19;;;17.13;56.76
56604;BME280;42486;47.478;19.036;2022-10-04T11:41:54;100814.47;;;16.46;57.96
56604;BME280;42486;47.478;19.036;2022-10-04T11:48:51;100825.88;;;16.46;57.83
56604;BME280;42486;47.478;19.036;2022-10-04T11:58:02;100815.69;;;17.65;56.86
56604;BME280;42486;47.478;19.036;2022-10-04T12:10:45;100823.09;;;16.87;56.65
56604;BME280;42486;47.478;19.036;2022-10-04T12:14:13;100813.37;;;16.68;59.05
56604;BME280;42486;47.478;19.036;2022-10-04T12:27:43;100813.63;;;16.74;59.79
56604;BME280;42486;47.478;19.036;2022-10-04T13:00:22;100829.31;;;16.66;57.27
56604;BME280;42486;47.478;19.036;2022-10-04T13:13:38;100822.53;;;16.73;57.55
56604;BME280;42486;47.478;19.036;2022-10-04T13:23:20;100814.06;;;16.80;57.10
56604;BME280;42486;47.478;19.036;2022-10-04T13:29:40;100822.09;;;16.98;55.90
56604;BME280;42486;47.478;19.036;2022-10-04T13:42:45;100831.13;;;16.76;54.91
56604;BME280;42486;47.478;19.036;2022-10-04T13:49:03;100836.00;;;16.61;56.11
56604;BME280;42486;47.478;19.036;2022-10-04T13:52:16;100832.81;;;16.57;57.01
56604;BME280;42486;47.478;19.036;2022-10-04T13:55:44;100837.66;;;16.62;54.75
56604;BME280;42486;47.478;19.036;2022-10-04T14:12:38;100841.13;;;16.04;56.35
56604;BME280;42486;47.478;19.036;2022-10-04T14:22:46;100848.91;;;16.54;56.32
56604;BME280;42486;47.478;19.036;2022-10-04T14:46:22;100859.38;;;15.86;58.63
56604;BME280;42486;47.478;19.036;2022-10-04T14:56:05;100865.88;;;15.82;59.31
56604;BME280;42486;47.478;19.036;2022-10-04T15:06:04;100876.03;;;15.56;59.88
56604;BME280;42486;47.478;19.036;2022-10-04T15:19:00;100875.34;;;15.33;59.44
56604;BME280;42486;47.478;19.036;2022-10-04T15:22:11;100873.16;;;15.38;59.85
56604;BME280;42486;47.478;19.036;2022-10-04T15:38:32;100889.50;;;14.90;62.34
56604;BME280;42486;47.478;19.036;2022-10-04T16:00:53;100910.41;;;14.16;69.05
56604;BME280;42486;47.478;19.036;2022-10-04T16:17:24;100932.41;;;13.70;73.18
56604;BME280;42486;47.478;19.036;2022-10-04T16:23:37;100941.47;;;13.54;75.38
56604;BME280;42486;47.478;19.036;2022-10-04T16:29:59;100943.69;;;13.36;75.20
56604;BME280;42486;47.478;19.036;2022-10-04T16:33:31;100943.34;;;13.30;75.52
56604;BME280;42486;47.478;19.036;2022-10-04T16:36:48;100947.97;;;13.26;75.99
56604;BME280;42486;47.478;19.036;2022-10-04T16:39:55;100945.53;;;13.23;76.38
56604;BME280;42486;47.478;19.036;2022-10-04T16:43:20;100946.84;;;13.17;76.23
56604;BME280;42486;47.478;19.036;2022-10-04T16:46:34;100947.09;;;13.14;78.28
56604;BME280;42486;47.478;19.036;2022-10-04T16:49:47;100951.09;;;13.07;78.98
56604;BME280;42486;47.478;19.036;2022-10-04T17:02:52;100966.31;;;12.91;79.71
56604;BME280;42486;47.478;19.036;2022-10-04T17:06:09;100968.78;;;12.92;80.19
56604;BME280;42486;47.478;19.036;2022-10-04T17:09:17;100976.78;;;12.91;80.00
56604;BME280;42486;47.478;19.036;2022-10-04T17:16:09;100985.22;;;12.83;81.08
56604;BME280;42486;47.478;19.036;2022-10-04T17:19:31;100975.78;;;12.81;81.64
56604;BME280;42486;47.478;19.036;2022-10-04T17:22:59;100982.94;;;12.78;82.05
56604;BME280;42486;47.478;19.036;2022-10-04T17:42:57;100999.47;;;12.55;86.15
56604;BME280;42486;47.478;19.036;2022-10-04T17:49:03;101003.37;;;12.49;84.28
56604;BME280;42486;47.478;19.036;2022-10-04T17:52:31;101012.94;;;12.50;84.17
56604;BME280;42486;47.478;19.036;2022-10-04T17:55:54;101008.62;;;12.49;84.06
56604;BME280;42486;47.478;19.036;2022-10-04T17:58:58;101011.38;;;12.48;84.04
56604;BME280;42486;47.478;19.036;2022-10-04T18:02:09;101018.41;;;12.47;85.68
56604;BME280;42486;47.478;19.036;2022-10-04T18:05:41;101020.37;;;12.44;86.04
56604;BME280;42486;47.478;19.036;2022-10-04T18:08:42;101025.22;;;12.37;85.07
56604;BME280;42486;47.478;19.036;2022-10-04T18:11:52;101023.66;;;12.34;83.96
56604;BME280;42486;47.478;19.036;2022-10-04T18:18:16;101026.28;;;12.22;85.21
56604;BME280;42486;47.478;19.036;2022-10-04T18:21:28;101019.16;;;12.24;85.00
56604;BME280;42486;47.478;19.036;2022-10-04T18:24:33;101024.63;;;12.21;85.52
56604;BME280;42486;47.478;19.036;2022-10-04T18:28:21;101024.28;;;12.12;85.44
56604;BME280;42486;47.478;19.036;2022-10-04T18:31:00;101032.50;;;12.08;86.29
56604;BME280;42486;47.478;19.036;2022-10-04T18:34:27;101028.41;;;12.04;88.65
56604;BME280;42486;47.478;19.036;2022-10-04T18:37:36;101037.59;;;11.97;86.42
56604;BME280;42486;47.478;19.036;2022-10-04T18:40:42;101041.50;;;12.04;86.46
56604;BME280;42486;47.478;19.036;2022-10-04T18:46:59;101045.16;;;11.88;86.69
56604;BME280;42486;47.478;19.036;2022-10-04T18:50:14;101039.19;;;11.99;83.16
56604;BME280;42486;47.478;19.036;2022-10-04T18:53:21;101050.81;;;11.95;85.98
56604;BME280;42486;47.478;19.036;2022-10-04T18:56:28;101056.69;;;11.99;84.58
56604;BME280;42486;47.478;19.036;2022-10-04T18:59:39;101066.53;;;11.95;87.20
56604;BME280;42486;47.478;19.036;2022-10-04T19:06:14;101064.88;;;11.67;86.37
56604;BME280;42486;47.478;19.036;2022-10-04T19:13:07;101073.03;;;11.50;88.10
56604;BME280;42486;47.478;19.036;2022-10-04T19:16:20;101082.56;;;11.51;87.23
56604;BME280;42486;47.478;19.036;2022-10-04T19:22:48;101086.03;;;11.24;90.23
56604;BME280;42486;47.478;19.036;2022-10-04T19:26:07;101088.59;;;11.11;91.57
56604;BME280;42486;47.478;19.036;2022-10-04T19:32:43;101092.91;;;10.98;92.81
56604;BME280;42486;47.478;19.036;2022-10-04T19:35:53;101092.19;;;10.96;93.72
56604;BME280;42486;47.478;19.036;2022-10-04T19:45:25;101112.22;;;10.83;93.78
56604;BME280;42486;47.478;19.036;2022-10-04T19:48:35;101109.22;;;10.74;95.70
56604;BME280;42486;47.478;19.036;2022-10-04T19:51:44;101113.50;;;10.75;95.92
56604;BME280;42486;47.478;19.036;2022-10-04T19:54:56;101121.81;;;10.68;96.40
56604;BME280;42486;47.478;19.036;2022-10-04T19:58:12;101115.28;;;10.61;97.32
56604;BME280;42486;47.478;19.036;2022-10-04T20:01:19;101117.53;;;10.52;97.93
56604;BME280;42486;47.478;19.036;2022-10-04T20:04:26;101122.94;;;10.49;99.73
56604;BME280;42486;47.478;19.036;2022-10-04T20:07:47;101127.72;;;10.43;99.37
56604;BME280;42486;47.478;19.036;2022-10-04T20:10:51;101128.25;;;10.33;100.00
56604;BME280;42486;47.478;19.036;2022-10-04T20:17:50;101134.12;;;10.37;100.00
56604;BME280;42486;47.478;19.036;2022-10-04T20:23:58;101133.41;;;10.35;100.00
56604;BME280;42486;47.478;19.036;2022-10-04T20:27:03;101141.28;;;10.19;100.00
56604;BME280;42486;47.478;19.036;2022-10-04T20:30:13;101139.94;;;10.12;100.00
56604;BME280;42486;47.478;19.036;2022-10-04T20:46:26;101145.59;;;9.90;100.00
56604;BME280;42486;47.478;19.036;2022-10-04T20:49:30;101150.91;;;9.88;100.00
56604;BME280;42486;47.478;19.036;2022-10-04T20:52:33;101161.94;;;9.78;100.00
56604;BME280;42486;47.478;19.036;2022-10-04T20:55:37;101163.91;;;9.74;100.00
56604;BME280;42486;47.478;19.036;2022-10-04T20:58:42;101166.84;;;9.68;100.00
56604;BME280;42486;47.478;19.036;2022-10-04T21:01:59;101167.72;;;9.68;100.00
56604;BME280;42486;47.478;19.036;2022-10-04T21:05:12;101171.59;;;9.61;100.00
56604;BME280;42486;47.478;19.036;2022-10-04T21:08:22;101165.97;;;9.53;100.00
56604;BME280;42486;47.478;19.036;2022-10-04T21:11:25;101163.53;;;9.50;100.00
56604;BME280;42486;47.478;19.036;2022-10-04T21:15:00;101173.38;;;9.45;100.00
56604;BME280;42486;47.478;19.036;2022-10-04T21:18:07;101169.94;;;9.44;100.00
56604;BME280;42486;47.478;19.036;2022-10-04T21:21:12;101173.38;;;9.45;100.00
56604;BME280;42486;47.478;19.036;2022-10-04T21:27:38;101170.34;;;9.37;100.00
56604;BME280;42486;47.478;19.036;2022-10-04T21:30:49;101176.06;;;9.27;100.00
56604;BME280;42486;47.478;19.036;2022-10-04T21:33:52;101185.22;;;9.19;100.00
56604;BME280;42486;47.478;19.036;2022-10-04T21:36:54;101184.28;;;9.20;100.00
56604;BME280;42486;47.478;19.036;2022-10-04T21:39:58;101191.38;;;9.18;100.00
56604;BME280;42486;47.478;19.036;2022-10-04T21:43:00;101189.94;;;9.12;100.00
56604;BME280;42486;47.478;19.036;2022-10-04T21:46:03;101188.94;;;8.99;100.00
56604;BME280;42486;47.478;19.036;2022-10-04T21:49:06;101188.81;;;9.00;100.00
56604;BME280;42486;47.478;19.036;2022-10-04T21:52:08;101194.38;;;8.94;100.00
56604;BME280;42486;47.478;19.036;2022-10-04T21:55:12;101200.66;;;8.90;100.00
56604;BME280;42486;47.478;19.036;2022-10-04T21:58:19;101201.66;;;8.88;100.00
56604;BME280;42486;47.478;19.036;2022-10-04T22:01:23;101203.25;;;8.90;100.00
56604;BME280;42486;47.478;19.036;2022-10-04T22:04:26;101206.72;;;8.91;100.00
56604;BME280;42486;47.478;19.036;2022-10-04T22:07:31;101204.44;;;8.85;100.00
56604;BME280;42486;47.478;19.036;2022-10-04T22:10:33;101205.00;;;8.74;100.00
56604;BME280;42486;47.478;19.036;2022-10-04T22:13:35;101202.81;;;8.82;100.00
56604;BME280;42486;47.478;19.036;2022-10-04T22:16:38;101210.97;;;8.76;100.00
56604;BME280;42486;47.478;19.036;2022-10-04T22:19:40;101204.16;;;8.73;100.00
56604;BME280;42486;47.478;19.036;2022-10-04T22:22:43;101205.31;;;8.68;100.00
56604;BME280;42486;47.478;19.036;2022-10-04T22:25:46;101209.25;;;8.59;100.00
56604;BME280;42486;47.478;19.036;2022-10-04T22:28:51;101216.91;;;8.62;100.00
56604;BME280;42486;47.478;19.036;2022-10-04T22:31:55;101219.19;;;8.51;100.00
56604;BME280;42486;47.478;19.036;2022-10-04T22:34:59;101215.59;;;8.53;100.00
56604;BME280;42486;47.478;19.036;2022-10-04T22:38:03;101210.94;;;8.43;100.00
56604;BME280;42486;47.478;19.036;2022-10-04T22:41:10;101204.50;;;8.32;100.00
56604;BME280;42486;47.478;19.036;2022-10-04T22:44:18;101214.75;;;8.35;100.00
56604;BME280;42486;47.478;19.036;2022-10-04T22:47:21;101224.63;;;8.29;100.00
56604;BME280;42486;47.478;19.036;2022-10-04T22:50:26;101225.78;;;8.23;100.00
56604;BME280;42486;47.478;19.036;2022-10-04T22:53:31;101221.72;;;8.18;100.00
56604;BME280;42486;47.478;19.036;2022-10-04T22:56:35;101223.25;;;8.04;100.00
56604;BME280;42486;47.478;19.036;2022-10-04T22:59:38;101228.88;;;7.95;100.00
56604;BME280;42486;47.478;19.036;2022-10-04T23:02:42;101229.91;;;7.92;100.00
56604;BME280;42486;47.478;19.036;2022-10-04T23:05:45;101226.50;;;7.90;100.00
56604;BME280;42486;47.478;19.036;2022-10-04T23:08:48;101229.75;;;7.96;100.00
56604;BME280;42486;47.478;19.036;2022-10-04T23:11:51;101231.19;;;8.01;100.00
56604;BME280;42486;47.478;19.036;2022-10-04T23:14:54;101227.97;;;7.96;100.00
56604;BME280;42486;47.478;19.036;2022-10-04T23:17:56;101236.09;;;7.90;100.00
56604;BME280;42486;47.478;19.036;2022-10-04T23:20:59;101238.44;;;7.77;100.00
56604;BME280;42486;47.478;19.036;2022-10-04T23:27:15;101243.00;;;7.72;100.00
56604;BME280;42486;47.478;19.036;2022-10-04T23:30:19;101252.69;;;7.68;100.00
56604;BME280;42486;47.478;19.036;2022-10-04T23:33:22;101251.06;;;7.66;100.00
56604;BME280;42486;47.478;19.036;2022-10-04T23:36:24;101265.28;;;7.59;100.00
56604;BME280;42486;47.478;19.036;2022-10-04T23:39:28;101263.38;;;7.62;100.00
56604;BME280;42486;47.478;19.036;2022-10-04T23:42:32;101267.13;;;7.57;100.00
56604;BME280;42486;47.478;19.036;2022-10-04T23:45:35;101252.50;;;7.54;100.00
56604;BME280;42486;47.478;19.036;2022-10-04T23:48:43;101256.87;;;7.54;100.00
56604;BME280;42486;47.478;19.036;2022-10-04T23:51:46;101271.53;;;7.55;100.00
56604;BME280;42486;47.478;19.036;2022-10-04T23:54:50;101270.16;;;7.47;100.00
56604;BME280;42486;47.478;19.036;2022-10-04T23:57:53;101276.69;;;7.37;100.00
